createdAt,value
2022-07-29T00:02:28.821Z,56.38
2022-07-29T00:05:32.257Z,57.96
2022-07-29T00:08:37.396Z,60.64
2022-07-29T00:11:40.708Z,56.38
2022-07-29T00:14:44.120Z,58.75
2022-07-29T00:17:47.682Z,55.04
2022-07-29T00:20:51.135Z,57.73
2022-07-29T00:23:55.865Z,60.08
2022-07-29T00:26:59.053Z,60.43
2022-07-29T00:30:02.346Z,61.67
2022-07-29T00:33:09.110Z,60.36
2022-07-29T00:36:11.592Z,61.71
2022-07-29T00:39:16.198Z,61.90
2022-07-29T00:42:19.752Z,63.70
2022-07-29T00:45:23.947Z,64.45
2022-07-29T00:48:27.257Z,65.20
2022-07-29T00:51:31.846Z,64.49
2022-07-29T00:54:43.851Z,64.28
2022-07-29T00:57:47.800Z,63.91
2022-07-29T01:00:51.211Z,63.17
2022-07-29T01:03:55.067Z,63.12
2022-07-29T01:06:58.457Z,64.68
2022-07-29T01:10:06.210Z,64.48
2022-07-29T01:13:11.092Z,68.49
2022-07-29T01:16:19.988Z,68.79
2022-07-29T01:19:44.444Z,67.46
2022-07-29T01:23:23.814Z,67.06
2022-07-29T01:26:39.514Z,70.37
2022-07-29T01:29:51.358Z,71.43
2022-07-29T01:33:02.185Z,71.70
2022-07-29T01:36:12.617Z,70.01
2022-07-29T01:39:21.434Z,71.08
2022-07-29T01:42:31.702Z,72.27
2022-07-29T01:45:42.400Z,72.54
2022-07-29T01:48:49.585Z,73.61
2022-07-29T01:51:56.921Z,75.25
2022-07-29T01:55:04.588Z,76.91
2022-07-29T01:58:09.659Z,78.31
2022-07-29T02:01:15.975Z,76.64
2022-07-29T02:04:28.988Z,76.16
2022-07-29T02:07:35.385Z,77.51
2022-07-29T02:10:41.221Z,71.77
2022-07-29T02:13:46.408Z,71.81
2022-07-29T02:16:54.552Z,72.47
2022-07-29T02:20:02.069Z,73.70
2022-07-29T02:23:06.208Z,75.57
2022-07-29T02:26:11.206Z,74.14
2022-07-29T02:29:15.836Z,74.02
2022-07-29T02:32:33.417Z,75.96
2022-07-29T02:35:37.343Z,75.57
2022-07-29T02:38:53.136Z,75.43
2022-07-29T02:42:01.274Z,76.78
2022-07-29T02:45:04.978Z,76.99
2022-07-29T02:48:15.219Z,79.91
2022-07-29T02:51:43.722Z,80.30
2022-07-29T02:54:53.755Z,78.35
2022-07-29T02:58:02.765Z,79.73
2022-07-29T03:01:15.719Z,80.17
2022-07-29T03:04:27.101Z,81.20
2022-07-29T03:07:30.808Z,81.72
2022-07-29T03:10:34.817Z,80.99
2022-07-29T03:13:39.224Z,80.60
2022-07-29T03:16:43.586Z,81.29
2022-07-29T03:19:48.723Z,79.00
2022-07-29T03:22:52.888Z,79.68
2022-07-29T03:25:57.098Z,80.43
2022-07-29T03:29:00.502Z,79.27
2022-07-29T03:34:45.700Z,79.23
2022-07-29T03:37:51.659Z,78.06
2022-07-29T03:40:58.675Z,76.71
2022-07-29T03:44:02.742Z,77.27
2022-07-29T03:47:08.596Z,77.27
2022-07-29T03:50:16.775Z,77.86
2022-07-29T03:53:20.380Z,76.78
2022-07-29T03:56:25.449Z,77.83
2022-07-29T03:59:29.723Z,77.93
2022-07-29T04:02:34.472Z,80.53
2022-07-29T04:05:39.296Z,79.78
2022-07-29T04:08:42.593Z,80.14
2022-07-29T04:12:02.891Z,80.20
2022-07-29T04:15:07.948Z,80.35
2022-07-29T04:18:11.164Z,82.58
2022-07-29T04:21:18.524Z,83.98
2022-07-29T04:24:22.071Z,84.54
2022-07-29T04:27:25.664Z,85.69
2022-07-29T04:30:29.466Z,86.52
2022-07-29T04:33:32.741Z,87.90
2022-07-29T04:36:37.384Z,90.39
2022-07-29T04:39:40.721Z,89.71
2022-07-29T04:42:46.562Z,87.99
2022-07-29T04:45:50.749Z,90.07
2022-07-29T04:48:54.064Z,94.38
2022-07-29T04:51:59.010Z,94.11
2022-07-29T04:55:02.300Z,92.05
2022-07-29T04:58:05.676Z,90.25
2022-07-29T05:01:09.516Z,89.61
2022-07-29T05:04:13.089Z,88.86
2022-07-29T05:07:17.966Z,84.42
2022-07-29T05:10:21.305Z,83.47
2022-07-29T05:13:24.557Z,88.08
2022-07-29T05:16:27.965Z,85.40
2022-07-29T05:19:31.271Z,80.03
2022-07-29T05:22:35.967Z,73.49
2022-07-29T05:25:43.551Z,77.04
2022-07-29T05:28:48.052Z,72.59
2022-07-29T05:31:52.820Z,71.96
2022-07-29T05:34:56.329Z,69.29
2022-07-29T05:38:01.043Z,65.75
2022-07-29T05:41:04.955Z,70.00
2022-07-29T05:44:08.450Z,66.18
2022-07-29T05:47:13.571Z,65.82
2022-07-29T05:50:44.228Z,65.92
2022-07-29T05:53:52.785Z,65.70
2022-07-29T05:56:56.046Z,66.21
2022-07-29T05:59:59.684Z,66.17
2022-07-29T06:03:05.593Z,66.47
2022-07-29T06:06:09.700Z,67.06
2022-07-29T06:09:14.843Z,64.14
2022-07-29T06:12:18.357Z,57.99
2022-07-29T06:15:21.645Z,59.21
2022-07-29T06:18:25.732Z,60.05
2022-07-29T06:21:28.927Z,54.57
2022-07-29T06:24:33.607Z,52.23
2022-07-29T06:27:36.830Z,53.28
2022-07-29T06:30:40.287Z,54.15
2022-07-29T06:33:43.897Z,57.10
2022-07-29T06:36:47.200Z,59.01
2022-07-29T06:40:13.127Z,56.20
2022-07-29T06:43:16.609Z,55.76
2022-07-29T06:46:21.887Z,60.73
2022-07-29T06:49:27.073Z,56.46
2022-07-29T06:52:30.366Z,56.64
2022-07-29T06:55:37.918Z,56.48
2022-07-29T06:58:41.166Z,55.10
2022-07-29T07:01:47.481Z,53.21
2022-07-29T07:04:50.936Z,54.86
2022-07-29T07:07:54.127Z,53.85
2022-07-29T07:11:00.092Z,51.36
2022-07-29T07:14:04.270Z,53.77
2022-07-29T07:17:08.085Z,55.30
2022-07-29T07:20:12.346Z,54.35
2022-07-29T07:23:16.396Z,52.91
2022-07-29T07:26:21.139Z,52.37
2022-07-29T07:29:24.361Z,52.31
2022-07-29T07:32:27.569Z,53.29
2022-07-29T07:35:31.113Z,55.28
2022-07-29T07:38:34.404Z,51.38
2022-07-29T07:41:39.064Z,48.43
2022-07-29T07:45:03.673Z,45.51
2022-07-29T07:48:06.766Z,46.41
2022-07-29T07:51:10.232Z,49.49
2022-07-29T07:54:13.790Z,50.70
2022-07-29T07:57:18.641Z,52.10
2022-07-29T08:00:23.737Z,53.74
2022-07-29T08:03:27.347Z,53.03
2022-07-29T08:06:30.584Z,51.54
2022-07-29T08:09:35.291Z,52.39
2022-07-29T08:12:39.922Z,52.67
2022-07-29T08:15:44.152Z,54.12
2022-07-29T08:18:48.103Z,56.54
2022-07-29T08:21:53.692Z,56.33
2022-07-29T08:24:57.232Z,55.49
2022-07-29T08:28:01.831Z,54.23
2022-07-29T08:31:05.167Z,53.26
2022-07-29T08:34:08.741Z,52.46
2022-07-29T08:37:12.337Z,50.09
2022-07-29T08:40:16.208Z,50.37
2022-07-29T08:43:22.926Z,52.54
2022-07-29T08:46:26.934Z,49.07
2022-07-29T08:49:30.651Z,48.79
2022-07-29T08:52:37.876Z,47.96
2022-07-29T08:55:42.579Z,48.21
2022-07-29T08:58:52.030Z,46.86
2022-07-29T09:01:56.771Z,46.02
2022-07-29T09:05:02.523Z,45.42
2022-07-29T09:08:06.818Z,42.74
2022-07-29T09:11:10.961Z,42.63
2022-07-29T09:14:16.186Z,43.49
2022-07-29T09:17:20.899Z,44.11
2022-07-29T09:20:24.976Z,41.72
2022-07-29T09:23:28.242Z,43.75
2022-07-29T09:26:32.229Z,44.63
2022-07-29T09:29:37.957Z,41.99
2022-07-29T09:34:45.704Z,43.57
2022-07-29T09:37:53.047Z,41.37
2022-07-29T09:41:04.573Z,41.99
2022-07-29T09:44:09.628Z,40.73
2022-07-29T09:47:12.936Z,41.57
2022-07-29T09:50:20.736Z,40.89
2022-07-29T09:53:34.438Z,41.90
2022-07-29T09:56:41.517Z,40.41
2022-07-29T09:59:58.063Z,39.83
2022-07-29T10:03:03.762Z,39.59
2022-07-29T10:06:10.435Z,39.62
2022-07-29T10:09:13.742Z,39.32
2022-07-29T10:12:16.960Z,39.66
2022-07-29T10:15:20.678Z,38.97
2022-07-29T10:18:24.108Z,39.44
2022-07-29T10:21:36.613Z,40.49
2022-07-29T10:24:41.566Z,38.59
2022-07-29T10:27:45.066Z,38.50
2022-07-29T10:30:51.488Z,37.82
2022-07-29T10:34:07.081Z,37.64
2022-07-29T10:37:26.307Z,37.87
2022-07-29T10:41:08.692Z,37.35
2022-07-29T10:44:19.532Z,38.13
2022-07-29T10:47:28.033Z,38.66
2022-07-29T10:50:54.496Z,37.92
2022-07-29T10:54:00.790Z,37.69
2022-07-29T10:57:16.601Z,38.51
2022-07-29T11:00:34.624Z,39.14
2022-07-29T11:03:53.727Z,37.49
2022-07-29T11:07:09.775Z,38.10
2022-07-29T11:10:30.970Z,38.83
2022-07-29T11:17:14.055Z,37.70
2022-07-29T11:20:38.273Z,37.74
2022-07-29T11:23:43.350Z,39.16
2022-07-29T11:31:00.238Z,37.95
2022-07-29T11:34:28.243Z,38.67
2022-07-29T11:37:32.922Z,38.91
2022-07-29T11:41:22.473Z,37.54
2022-07-29T11:44:57.232Z,38.03
2022-07-29T11:48:31.491Z,37.72
2022-07-29T11:51:33.115Z,36.98
2022-07-29T11:55:00.551Z,37.56
2022-07-29T11:58:04.676Z,37.59
2022-07-29T12:01:09.395Z,37.13
2022-07-29T12:04:12.708Z,38.89
2022-07-29T12:07:17.055Z,36.12
2022-07-29T12:10:30.434Z,34.89
2022-07-29T12:13:41.332Z,36.14
2022-07-29T12:16:45.929Z,37.29
2022-07-29T12:19:49.301Z,36.49
2022-07-29T12:22:55.639Z,36.55
2022-07-29T12:26:00.496Z,36.56
2022-07-29T12:29:04.268Z,36.65
2022-07-29T12:32:19.817Z,38.33
2022-07-29T12:35:23.598Z,37.50
2022-07-29T12:38:27.251Z,37.03
2022-07-29T12:41:33.988Z,34.82
2022-07-29T12:44:48.388Z,35.76
2022-07-29T12:47:56.199Z,36.01
2022-07-29T12:51:02.316Z,34.92
2022-07-29T12:54:08.898Z,35.24
2022-07-29T12:57:20.275Z,34.23
2022-07-29T13:00:25.878Z,34.72
2022-07-29T13:03:43.428Z,33.71
2022-07-29T13:07:04.860Z,33.37
2022-07-29T13:10:16.795Z,33.91
2022-07-29T13:13:21.503Z,33.27
2022-07-29T13:16:24.728Z,34.22
2022-07-29T13:19:38.454Z,33.08
2022-07-29T13:22:43.261Z,34.14
2022-07-29T13:25:46.907Z,33.83
2022-07-29T13:28:50.712Z,34.63
2022-07-29T13:31:54.025Z,37.07
2022-07-29T13:34:59.481Z,40.15
2022-07-29T13:38:02.676Z,41.89
2022-07-29T13:41:06.004Z,43.80
2022-07-29T13:44:09.529Z,45.59
2022-07-29T13:47:12.977Z,48.33
2022-07-29T13:50:17.777Z,50.66
2022-07-29T13:53:26.816Z,51.27
2022-07-29T13:56:30.592Z,53.02
2022-07-29T13:59:34.475Z,51.80
2022-07-29T14:02:39.316Z,50.92
2022-07-29T14:05:43.969Z,60.35
2022-07-29T14:08:47.332Z,64.11
2022-07-29T14:11:52.288Z,69.06
2022-07-29T14:14:55.921Z,77.98
2022-07-29T14:17:59.325Z,87.47
2022-07-29T14:21:04.108Z,95.42
2022-07-29T14:24:17.845Z,100.00
2022-07-29T14:27:37.368Z,82.83
2022-07-29T14:30:41.905Z,97.35
2022-07-29T14:33:46.266Z,92.20
2022-07-29T14:36:56.385Z,90.58
2022-07-29T14:40:02.698Z,85.36
2022-07-29T14:43:06.390Z,87.61
2022-07-29T14:46:10.258Z,91.06
2022-07-29T14:49:14.081Z,90.36
2022-07-29T14:52:18.868Z,81.25
2022-07-29T14:55:22.430Z,82.44
2022-07-29T14:58:25.850Z,74.13
2022-07-29T15:01:30.127Z,71.05
2022-07-29T15:04:33.477Z,94.36
2022-07-29T15:07:38.525Z,100.00
2022-07-29T15:10:41.806Z,94.94
2022-07-29T15:13:45.118Z,90.10
2022-07-29T15:16:48.677Z,85.03
2022-07-29T15:19:52.071Z,86.03
2022-07-29T15:22:57.456Z,84.01
2022-07-29T15:26:00.802Z,74.87
2022-07-29T15:29:04.154Z,73.24
2022-07-29T15:34:47.130Z,81.52
2022-07-29T15:37:50.339Z,77.38
2022-07-29T15:40:53.648Z,77.83
2022-07-29T15:43:56.930Z,82.71
2022-07-29T15:47:07.212Z,87.70
2022-07-29T15:50:15.803Z,91.73
2022-07-29T15:53:19.079Z,95.01
2022-07-29T15:56:22.866Z,99.36
2022-07-29T15:59:26.427Z,100.00
2022-07-29T16:02:29.631Z,100.00
2022-07-29T16:05:34.339Z,100.00
2022-07-29T16:08:44.950Z,100.00
2022-07-29T16:11:50.902Z,100.00
2022-07-29T16:14:54.550Z,100.00
2022-07-29T16:17:57.798Z,100.00
2022-07-29T16:21:02.384Z,100.00
2022-07-29T16:24:07.275Z,100.00
2022-07-29T16:27:10.627Z,100.00
2022-07-29T16:30:14.550Z,100.00
2022-07-29T16:33:17.841Z,100.00
2022-07-29T16:36:23.133Z,100.00
2022-07-29T16:39:26.362Z,100.00
2022-07-29T16:42:46.011Z,100.00
2022-07-29T16:45:50.080Z,100.00
2022-07-29T16:48:53.453Z,100.00
2022-07-29T16:51:58.922Z,100.00
2022-07-29T16:55:03.006Z,100.00
2022-07-29T16:58:06.373Z,100.00
2022-07-29T17:01:09.716Z,100.00
2022-07-29T17:04:14.964Z,100.00
2022-07-29T17:07:19.781Z,100.00
2022-07-29T17:10:23.480Z,100.00
2022-07-29T17:13:26.813Z,100.00
2022-07-29T17:16:32.905Z,100.00
2022-07-29T17:19:37.047Z,100.00
2022-07-29T17:22:43.026Z,100.00
2022-07-29T17:25:46.266Z,100.00
2022-07-29T17:28:49.583Z,100.00
2022-07-29T17:31:53.179Z,100.00
2022-07-29T17:34:56.822Z,100.00
2022-07-29T17:38:01.432Z,100.00
2022-07-29T17:41:09.382Z,100.00
2022-07-29T17:44:14.643Z,100.00
2022-07-29T17:47:18.009Z,100.00
2022-07-29T17:50:21.343Z,100.00
2022-07-29T17:53:25.986Z,100.00
2022-07-29T17:56:30.320Z,100.00
2022-07-29T17:59:33.648Z,100.00
2022-07-29T18:02:37.560Z,100.00
2022-07-29T18:05:41.521Z,100.00
2022-07-29T18:08:47.546Z,100.00
2022-07-29T18:11:50.932Z,100.00
2022-07-29T18:14:54.496Z,100.00
2022-07-29T18:17:58.148Z,100.00
2022-07-29T18:21:01.659Z,100.00
2022-07-29T18:24:07.178Z,100.00
2022-07-29T18:27:10.678Z,100.00
2022-07-29T18:30:14.982Z,100.00
2022-07-29T18:33:21.608Z,100.00
2022-07-29T18:36:25.452Z,100.00
2022-07-29T18:39:30.203Z,100.00
2022-07-29T18:42:34.015Z,100.00
2022-07-29T18:45:37.607Z,100.00
2022-07-29T18:48:43.241Z,100.00
2022-07-29T18:51:46.713Z,100.00
2022-07-29T18:54:51.478Z,100.00
2022-07-29T18:57:57.210Z,100.00
2022-07-29T19:01:01.867Z,100.00
2022-07-29T19:04:06.176Z,100.00
2022-07-29T19:07:09.513Z,100.00
2022-07-29T19:10:14.531Z,100.00
2022-07-29T19:13:18.063Z,100.00
2022-07-29T19:16:21.391Z,100.00
2022-07-29T19:19:25.378Z,100.00
2022-07-29T19:22:28.612Z,100.00
2022-07-29T19:25:35.692Z,100.00
2022-07-29T19:28:39.329Z,100.00
2022-07-29T19:31:43.065Z,100.00
2022-07-29T19:35:06.376Z,100.00
2022-07-29T19:38:09.568Z,100.00
2022-07-29T19:41:15.792Z,100.00
2022-07-29T19:44:19.245Z,100.00
2022-07-29T19:47:22.737Z,100.00
2022-07-29T19:50:26.646Z,100.00
2022-07-29T19:53:30.046Z,100.00
2022-07-29T19:56:34.658Z,100.00
2022-07-29T19:59:42.126Z,100.00
2022-07-29T20:02:48.110Z,100.00
2022-07-29T20:05:52.805Z,100.00
2022-07-29T20:08:58.773Z,100.00
2022-07-29T20:12:04.698Z,100.00
2022-07-29T20:15:10.192Z,100.00
2022-07-29T20:18:20.086Z,100.00
2022-07-29T20:21:23.289Z,100.00
2022-07-29T20:24:26.629Z,100.00
2022-07-29T20:27:31.753Z,100.00
2022-07-29T20:30:35.048Z,100.00
2022-07-29T20:33:41.939Z,100.00
2022-07-29T20:36:46.023Z,100.00
2022-07-29T20:39:49.208Z,100.00
2022-07-29T20:42:53.893Z,100.00
2022-07-29T20:45:57.527Z,100.00
2022-07-29T20:49:00.835Z,100.00
2022-07-29T20:52:04.256Z,100.00
2022-07-29T20:55:31.927Z,100.00
2022-07-29T20:58:36.803Z,100.00
2022-07-29T21:01:39.993Z,100.00
2022-07-29T21:04:43.711Z,100.00
2022-07-29T21:07:49.013Z,100.00
2022-07-29T21:10:52.762Z,100.00
2022-07-29T21:13:58.299Z,100.00
2022-07-29T21:17:02.057Z,100.00
2022-07-29T21:20:08.724Z,100.00
2022-07-29T21:23:12.224Z,100.00
2022-07-29T21:26:16.124Z,100.00
2022-07-29T21:29:19.761Z,100.00
2022-07-29T21:34:45.438Z,100.00
2022-07-29T21:37:48.846Z,100.00
2022-07-29T21:40:53.136Z,100.00
2022-07-29T21:43:58.201Z,100.00
2022-07-29T21:47:02.974Z,100.00
2022-07-29T21:50:09.055Z,100.00
2022-07-29T21:53:15.003Z,100.00
2022-07-29T21:56:19.264Z,100.00
2022-07-29T21:59:23.140Z,100.00
2022-07-29T22:02:26.529Z,100.00
2022-07-29T22:05:31.444Z,100.00
2022-07-29T22:08:34.718Z,100.00
2022-07-29T22:11:37.970Z,100.00
2022-07-29T22:14:46.948Z,100.00
2022-07-29T22:17:50.849Z,100.00
2022-07-29T22:20:55.492Z,100.00
2022-07-29T22:23:58.867Z,100.00
2022-07-29T22:27:02.446Z,100.00
2022-07-29T22:30:07.072Z,100.00
2022-07-29T22:33:17.514Z,100.00
2022-07-29T22:36:22.834Z,100.00
2022-07-29T22:39:26.130Z,100.00
2022-07-29T22:42:29.394Z,100.00
2022-07-29T22:45:32.824Z,100.00
2022-07-29T22:48:39.004Z,100.00
2022-07-29T22:51:43.715Z,100.00
2022-07-29T22:54:47.058Z,100.00
2022-07-29T22:57:50.394Z,100.00
2022-07-29T23:00:53.898Z,100.00
2022-07-29T23:03:57.534Z,100.00
2022-07-29T23:07:02.853Z,100.00
2022-07-29T23:10:07.200Z,100.00
2022-07-29T23:13:12.737Z,100.00
2022-07-29T23:16:15.965Z,100.00
2022-07-29T23:19:30.167Z,100.00
2022-07-29T23:22:34.920Z,100.00
2022-07-29T23:25:38.388Z,100.00
2022-07-29T23:28:43.074Z,100.00
2022-07-29T23:31:48.000Z,100.00
2022-07-29T23:34:53.956Z,100.00
2022-07-29T23:37:58.550Z,100.00
2022-07-29T23:41:02.510Z,100.00
2022-07-29T23:44:06.190Z,100.00
2022-07-29T23:47:09.660Z,100.00
2022-07-29T23:50:13.820Z,100.00
2022-07-29T23:53:18.503Z,100.00
2022-07-29T23:56:21.950Z,100.00
2022-07-29T23:59:25.713Z,100.00
